Time;durP1;ratioP1;P1;durP2;ratioP2;P2;SDS_P1;SDS_P2;PMS_P1;PMS_P2;Temp;Humidity;BMP_temperature;BMP_pressure;BME280_temperature;BME280_humidity;BME280_pressure;Samples;Min_cycle;Max_cycle;Signal;HPM_P1;HPM_P2
2023/01/21 00:00:34;;;;;;;74.88;41.28;;;;;;;-3.24;100.00;102360.28;5052237;28;20485;-72
2023/01/21 00:02:59;;;;;;;69.40;40.33;;;;;;;-3.21;100.00;102359.63;5034538;28;20028;-72
2023/01/21 00:05:24;;;;;;;74.63;42.08;;;;;;;-3.18;100.00;102363.38;5052305;28;20036;-72
2023/01/21 00:07:50;;;;;;;72.47;40.08;;;;;;;-3.24;100.00;102361.97;5052751;28;20078;-71
2023/01/21 00:10:15;;;;;;;71.78;41.53;;;;;;;-3.25;100.00;102378.25;5052353;28;20052;-72
2023/01/21 00:12:41;;;;;;;73.18;41.58;;;;;;;-3.28;100.00;102380.59;5052343;28;20128;-71
2023/01/21 00:15:06;;;;;;;70.30;40.60;;;;;;;-3.34;100.00;102375.81;5052542;28;20555;-71
2023/01/21 00:17:34;;;;;;;74.40;42.15;;;;;;;-3.33;100.00;102382.78;5047746;28;20049;-72
2023/01/21 00:20:01;;;;;;;72.75;41.17;;;;;;;-3.33;100.00;102387.97;5034477;28;20451;-72
2023/01/21 00:22:26;;;;;;;72.18;40.88;;;;;;;-3.31;100.00;102391.56;5052412;28;20149;-71
2023/01/21 00:24:51;;;;;;;72.97;41.40;;;;;;;-3.29;100.00;102384.88;5052019;28;20108;-72
2023/01/21 00:27:17;;;;;;;75.63;42.13;;;;;;;-3.33;100.00;102398.31;5052367;28;20396;-72
2023/01/21 00:29:42;;;;;;;74.63;41.88;;;;;;;-3.35;100.00;102387.84;5052079;28;20059;-71
2023/01/21 00:32:07;;;;;;;73.90;42.60;;;;;;;-3.38;100.00;102391.81;5052218;28;20057;-71
2023/01/21 00:34:33;;;;;;;72.38;41.30;;;;;;;-3.42;100.00;102395.84;5052433;28;20186;-71
2023/01/21 00:36:58;;;;;;;73.63;41.97;;;;;;;-3.36;100.00;102398.94;5052004;28;20029;-71
2023/01/21 00:39:23;;;;;;;73.43;41.10;;;;;;;-3.38;100.00;102400.50;5052075;28;20029;-72
2023/01/21 00:41:49;;;;;;;74.03;42.40;;;;;;;-3.36;100.00;102411.88;5052200;28;20114;-72
2023/01/21 00:44:15;;;;;;;79.38;42.45;;;;;;;-3.40;100.00;102412.38;5051867;28;20029;-72
2023/01/21 00:46:40;;;;;;;68.00;39.58;;;;;;;-3.46;100.00;102410.97;5052361;28;20029;-71
2023/01/21 00:49:06;;;;;;;75.47;42.05;;;;;;;-3.44;100.00;102412.91;5052207;28;20139;-72
2023/01/21 00:51:31;;;;;;;75.57;41.85;;;;;;;-3.44;100.00;102414.59;5051927;28;20037;-71
2023/01/21 00:53:56;;;;;;;73.97;41.10;;;;;;;-3.47;100.00;102419.50;5051939;28;20037;-71
2023/01/21 00:56:22;;;;;;;72.40;40.60;;;;;;;-3.51;100.00;102421.81;5052040;28;20480;-72
2023/01/21 00:58:47;;;;;;;76.10;42.05;;;;;;;-3.50;100.00;102431.38;5051841;28;20021;-72
2023/01/21 01:01:16;;;;;;;77.43;42.53;;;;;;;-3.48;100.00;102438.38;5052057;28;20068;-71
2023/01/21 01:03:42;;;;;;;72.68;41.72;;;;;;;-3.51;100.00;102450.28;5051985;28;20443;-71
2023/01/21 01:06:14;;;;;;;77.50;42.15;;;;;;;-3.53;100.00;102446.63;5051777;28;20079;-71
2023/01/21 01:08:40;;;;;;;75.72;42.97;;;;;;;-3.61;100.00;102455.41;5051994;28;20061;-71
2023/01/21 01:11:05;;;;;;;77.72;43.08;;;;;;;-3.53;100.00;102456.97;5052272;28;20029;-71
2023/01/21 01:13:33;;;;;;;77.43;43.17;;;;;;;-3.55;100.00;102455.94;5054604;28;20021;-71
2023/01/21 01:15:59;;;;;;;77.85;42.92;;;;;;;-3.54;100.00;102460.34;5055421;28;20025;-72
2023/01/21 01:18:26;;;;;;;80.72;43.85;;;;;;;-3.57;100.00;102473.00;5037642;28;20072;-71
2023/01/21 01:20:51;;;;;;;79.90;44.17;;;;;;;-3.57;100.00;102474.66;5019706;28;20374;-72
2023/01/21 01:23:17;;;;;;;85.03;45.10;;;;;;;-3.59;100.00;102476.22;5055293;28;20036;-72
2023/01/21 01:25:43;;;;;;;87.65;46.15;;;;;;;-3.57;100.00;102482.44;5055427;28;20033;-71
2023/01/21 01:28:08;;;;;;;87.72;46.05;;;;;;;-3.62;100.00;102492.38;5055217;28;20422;-75
2023/01/21 01:30:34;;;;;;;88.32;46.45;;;;;;;-3.60;100.00;102508.91;5055404;28;20455;-83
2023/01/21 01:33:00;;;;;;;90.82;47.28;;;;;;;-3.67;100.00;102503.97;5054936;28;20388;-75
2023/01/21 01:35:26;;;;;;;86.22;46.05;;;;;;;-3.65;100.00;102499.88;5054992;28;20037;-75
2023/01/21 01:37:53;;;;;;;90.18;47.28;;;;;;;-3.62;100.00;102504.41;5055121;28;20025;-82
2023/01/21 01:40:19;;;;;;;86.30;46.42;;;;;;;-3.59;100.00;102513.31;5054869;28;20033;-82
2023/01/21 01:42:44;;;;;;;86.28;47.38;;;;;;;-3.58;100.00;102530.66;5054892;28;20025;-82
2023/01/21 01:45:19;;;;;;;92.47;48.92;;;;;;;-3.56;100.00;102523.03;5054990;28;20037;-79
2023/01/21 01:48:02;;;;;;;91.63;48.38;;;;;;;-3.58;100.00;102528.06;5055054;28;20021;-82
2023/01/21 01:50:33;;;;;;;;;;;;;;;-3.64;100.00;102529.19;5055392;28;20522;-82
2023/01/21 01:53:00;;;;;;;92.85;49.13;;;;;;;-3.64;100.00;102536.94;5054755;28;19924;-75
2023/01/21 01:55:28;;;;;;;91.32;49.47;;;;;;;-3.65;100.00;102528.31;5054571;28;20043;-75
2023/01/21 01:57:54;;;;;;;95.88;50.30;;;;;;;-3.69;100.00;102532.28;5054793;28;20089;-76
2023/01/21 02:00:20;;;;;;;98.15;51.97;;;;;;;-3.64;100.00;102532.72;5054551;28;20064;-82
2023/01/21 02:03:43;;;;;;;94.50;49.85;;;;;;;-3.73;100.00;102540.56;5054448;28;20028;-75
2023/01/21 02:05:32;;;;;;;91.53;49.83;;;;;;;-3.71;100.00;102548.44;5054224;28;20037;-81
2023/01/21 02:07:59;;;;;;;101.55;51.78;;;;;;;-3.71;100.00;102543.28;5054592;28;20021;-80
2023/01/21 02:10:24;;;;;;;96.90;52.00;;;;;;;-3.72;100.00;102546.63;5054398;28;20423;-82
2023/01/21 02:12:50;;;;;;;98.20;52.08;;;;;;;-3.75;100.00;102549.84;5054258;28;20029;-82
2023/01/21 02:15:15;;;;;;;99.95;52.10;;;;;;;-3.76;100.00;102549.69;5054715;28;20539;-74
2023/01/21 02:17:57;;;;;;;104.57;52.60;;;;;;;-3.80;100.00;102560.53;5053997;28;20053;-71
2023/01/21 02:20:58;;;;;;;102.65;52.83;;;;;;;-3.86;100.00;102568.63;5054254;28;20029;-72
2023/01/21 02:23:47;;;;;;;101.30;53.17;;;;;;;-3.78;100.00;102572.81;4971750;28;20030;-73
2023/01/21 02:26:55;;;;;;;104.93;55.25;;;;;;;-3.86;100.00;102577.31;5047627;28;20399;-72
2023/01/21 02:29:39;;;;;;;107.13;54.83;;;;;;;-3.90;100.00;102576.91;5052601;28;20026;-73
2023/01/21 02:32:35;;;;;;;100.38;54.03;;;;;;;-3.90;100.00;102582.06;5050119;28;20036;-72
2023/01/21 02:35:38;;;;;;;105.03;55.28;;;;;;;-3.95;100.00;102581.63;5053951;28;20033;-72
2023/01/21 02:38:30;;;;;;;114.28;59.03;;;;;;;-3.85;100.00;102580.78;5037260;28;20108;-72
2023/01/21 02:41:04;;;;;;;112.90;60.05;;;;;;;-3.86;100.00;102585.06;5052406;28;20041;-72
2023/01/21 02:43:45;;;;;;;113.95;58.88;;;;;;;-3.87;100.00;102580.66;5053690;28;20025;-72
2023/01/21 02:46:51;;;;;;;111.07;58.60;;;;;;;-3.92;100.00;102587.06;5050648;28;20029;-72
2023/01/21 02:49:41;;;;;;;113.25;60.10;;;;;;;-3.94;100.00;102593.78;5040381;28;20037;-73
2023/01/21 02:52:06;;;;;;;114.22;59.80;;;;;;;-3.90;100.00;102590.72;5050080;28;20021;-72
2023/01/21 02:54:37;;;;;;;114.43;60.40;;;;;;;-3.92;100.00;102606.84;5053608;28;20036;-72
2023/01/21 02:57:09;;;;;;;118.07;61.60;;;;;;;-3.90;100.00;102607.91;5053457;28;20151;-72
2023/01/21 02:59:35;;;;;;;116.95;60.47;;;;;;;-3.91;100.00;102609.56;5049467;28;20544;-72
2023/01/21 03:02:11;;;;;;;115.85;61.40;;;;;;;-3.85;100.00;102612.69;5053592;28;20384;-72
2023/01/21 03:04:43;;;;;;;118.40;60.65;;;;;;;-3.89;100.00;102610.63;5031890;28;20083;-72
2023/01/21 03:07:34;;;;;;;114.03;59.97;;;;;;;-3.90;100.00;102611.41;5032072;28;20090;-72
2023/01/21 03:10:17;;;;;;;110.90;58.00;;;;;;;-3.89;100.00;102617.47;5034884;28;20025;-83
2023/01/21 03:12:54;;;;;;;112.13;57.85;;;;;;;-3.93;100.00;102611.13;5050409;28;20464;-82
2023/01/21 03:18:18;;;;;;;109.50;56.28;;;;;;;-3.97;100.00;102627.09;5050065;28;20052;-74
2023/01/21 03:20:50;;;;;;;109.37;55.70;;;;;;;-3.99;100.00;102620.91;5053026;28;20020;-75
2023/01/21 03:23:21;;;;;;;106.30;56.40;;;;;;;-3.99;100.00;102626.06;5053232;28;20033;-75
2023/01/21 03:25:49;;;;;;;109.47;55.25;;;;;;;-3.98;100.00;102627.88;5053039;28;20067;-82
2023/01/21 03:28:23;;;;;;;110.65;54.60;;;;;;;-4.03;100.00;102626.56;5052908;28;20029;-83
2023/01/21 03:30:54;;;;;;;108.22;54.33;;;;;;;-4.04;100.00;102632.47;5052848;28;20032;-74
2023/01/21 03:33:22;;;;;;;105.40;53.40;;;;;;;-4.02;100.00;102633.50;5053297;28;20036;-82
2023/01/21 03:35:50;;;;;;;101.68;53.00;;;;;;;-4.02;100.00;102633.50;5052135;28;20025;-74
2023/01/21 03:38:30;;;;;;;106.55;54.28;;;;;;;-4.06;100.00;102637.50;5052806;28;20175;-75
2023/01/21 03:41:07;;;;;;;103.78;52.22;;;;;;;-4.09;100.00;102636.31;5052887;28;20029;-75
2023/01/21 03:43:32;;;;;;;102.93;52.83;;;;;;;-4.07;100.00;102640.84;5052633;28;20024;-75
2023/01/21 03:46:27;;;;;;;100.43;51.42;;;;;;;-4.05;100.00;102649.66;5052736;28;20040;-75
2023/01/21 03:49:01;;;;;;;101.93;52.55;;;;;;;-4.06;100.00;102649.53;5040826;28;20129;-80
2023/01/21 03:51:40;;;;;;;102.43;51.15;;;;;;;-4.08;100.00;102654.56;5053001;28;20029;-74
2023/01/21 03:54:05;;;;;;;100.40;51.05;;;;;;;-4.11;100.00;102653.34;5048728;28;20021;-76
2023/01/21 03:56:31;;;;;;;102.13;51.05;;;;;;;-4.09;100.00;102660.47;5052464;28;20060;-83
2023/01/21 03:58:56;;;;;;;98.40;50.67;;;;;;;-4.10;100.00;102650.91;5052636;28;20031;-81
2023/01/21 04:01:21;;;;;;;103.13;50.35;;;;;;;-4.08;100.00;102662.31;5052419;28;20037;-83
2023/01/21 04:03:47;;;;;;;98.88;50.10;;;;;;;-4.13;100.00;102665.22;5052385;28;20555;-80
2023/01/21 04:06:17;;;;;;;101.50;49.30;;;;;;;-4.11;100.00;102664.56;5052481;28;20427;-83
2023/01/21 04:08:42;;;;;;;100.40;50.45;;;;;;;-4.19;100.00;102662.97;5052181;28;20025;-84
2023/01/21 04:11:08;;;;;;;98.18;48.40;;;;;;;-4.15;100.00;102665.09;5052385;28;20146;-83
2023/01/21 04:13:34;;;;;;;96.43;48.38;;;;;;;-4.19;100.00;102665.56;5052475;28;20021;-76
2023/01/21 04:15:59;;;;;;;91.50;46.38;;;;;;;-4.11;100.00;102668.84;5052298;28;20045;-72
2023/01/21 04:18:24;;;;;;;95.72;48.60;;;;;;;-4.18;100.00;102671.63;5052130;28;20517;-72
2023/01/21 04:20:50;;;;;;;92.75;46.22;;;;;;;-4.18;100.00;102676.78;5052362;28;20508;-72
2023/01/21 04:23:15;;;;;;;98.20;47.90;;;;;;;-4.21;100.00;102682.56;5052245;28;20073;-72
2023/01/21 04:25:40;;;;;;;93.85;47.03;;;;;;;-4.21;100.00;102686.09;5052118;28;20476;-72
2023/01/21 04:28:06;;;;;;;94.97;47.15;;;;;;;-4.22;100.00;102679.09;5052430;28;20388;-72
2023/01/21 04:30:31;;;;;;;93.25;46.35;;;;;;;-4.21;100.00;102682.56;5052151;28;20116;-73
2023/01/21 04:32:56;;;;;;;94.95;46.67;;;;;;;-4.20;100.00;102684.41;5052174;28;20037;-72
2023/01/21 04:35:22;;;;;;;90.63;45.55;;;;;;;-4.26;100.00;102684.72;5052173;28;20389;-72
2023/01/21 04:37:47;;;;;;;92.95;45.53;;;;;;;-4.28;100.00;102686.28;5052037;28;20052;-72
2023/01/21 04:40:13;;;;;;;93.60;45.25;;;;;;;-4.18;100.00;102679.38;5052492;28;20104;-72
2023/01/21 04:42:41;;;;;;;92.82;46.20;;;;;;;-4.25;100.00;102689.16;5052105;28;20044;-73
2023/01/21 04:45:07;;;;;;;93.75;46.13;;;;;;;-4.17;100.00;102682.09;5048232;28;20027;-73
2023/01/21 04:47:32;;;;;;;93.72;45.75;;;;;;;-4.21;100.00;102690.31;5037496;28;20381;-73
2023/01/21 04:49:58;;;;;;;92.43;44.97;;;;;;;-4.22;100.00;102694.59;5055844;28;20035;-72
2023/01/21 04:52:23;;;;;;;98.32;46.45;;;;;;;-4.21;100.00;102693.84;5055875;28;20369;-72
2023/01/21 04:54:48;;;;;;;90.03;44.30;;;;;;;-4.27;100.00;102698.41;5056015;28;20086;-85
2023/01/21 04:57:14;;;;;;;93.05;45.33;;;;;;;-4.24;100.00;102698.72;5055789;28;20107;-86
2023/01/21 04:59:39;;;;;;;97.40;45.15;;;;;;;-4.25;100.00;102707.22;5055819;28;20036;-76
2023/01/21 05:02:04;;;;;;;93.88;45.88;;;;;;;-4.29;100.00;102706.81;5056182;28;20441;-84
2023/01/21 05:04:31;;;;;;;91.20;44.75;;;;;;;-4.35;100.00;102706.19;5055622;28;20041;-86
2023/01/21 05:06:57;;;;;;;93.82;45.25;;;;;;;-4.42;100.00;102713.38;5055702;28;20075;-73
2023/01/21 05:09:23;;;;;;;89.72;43.83;;;;;;;-4.44;100.00;102714.91;5055795;28;20025;-87
2023/01/21 05:11:48;;;;;;;92.30;44.90;;;;;;;-4.34;100.00;102716.66;5055537;28;20025;-73
2023/01/21 05:14:13;;;;;;;93.50;45.58;;;;;;;-4.38;100.00;102720.66;5055684;28;20041;-73
2023/01/21 05:16:39;;;;;;;93.70;44.97;;;;;;;-4.37;100.00;102721.56;5055413;28;20029;-81
2023/01/21 05:19:04;;;;;;;87.53;43.55;;;;;;;-4.43;100.00;102726.13;5055283;28;20049;-86
2023/01/21 05:21:29;;;;;;;87.70;43.92;;;;;;;-4.42;100.00;102728.88;5055592;28;20033;-73
2023/01/21 05:23:55;;;;;;;95.82;46.00;;;;;;;-4.34;100.00;102724.41;5055311;28;20403;-73
2023/01/21 05:26:20;;;;;;;93.03;45.05;;;;;;;-4.32;100.00;102722.91;5055221;28;20460;-73
2023/01/21 05:28:45;;;;;;;98.38;47.25;;;;;;;-4.29;100.00;102735.22;5055376;28;20037;-81
2023/01/21 05:31:11;;;;;;;93.93;46.08;;;;;;;-4.31;100.00;102737.66;5055042;28;20113;-86
2023/01/21 05:33:36;;;;;;;97.00;46.13;;;;;;;-4.32;100.00;102735.81;5055141;28;20037;-72
2023/01/21 05:36:02;;;;;;;93.28;44.40;;;;;;;-4.31;100.00;102740.22;5055428;28;20526;-72
2023/01/21 05:38:28;;;;;;;97.68;46.10;;;;;;;-4.28;100.00;102743.09;5055337;28;20040;-72
2023/01/21 05:41:01;;;;;;;96.32;45.58;;;;;;;-4.35;100.00;102748.44;5054977;28;20037;-72
2023/01/21 05:43:27;;;;;;;92.13;44.30;;;;;;;-4.39;100.00;102748.91;5055022;28;20083;-73
2023/01/21 05:45:53;;;;;;;94.93;44.58;;;;;;;-4.37;100.00;102749.97;5054774;28;20071;-72
2023/01/21 05:48:18;;;;;;;91.15;44.33;;;;;;;-4.38;100.00;102755.91;5054772;28;20025;-73
2023/01/21 05:50:44;;;;;;;92.55;44.55;;;;;;;-4.36;100.00;102756.94;5055089;28;20108;-73
2023/01/21 05:53:09;;;;;;;90.50;44.60;;;;;;;-4.40;100.00;102760.00;5054796;28;20484;-73
2023/01/21 05:55:36;;;;;;;92.55;44.40;;;;;;;-4.37;100.00;102762.88;5054686;28;20039;-73
2023/01/21 05:58:01;;;;;;;96.82;44.88;;;;;;;-4.45;100.00;102759.56;5054104;28;20029;-73
2023/01/21 06:00:26;;;;;;;96.75;44.88;;;;;;;-4.45;100.00;102761.25;5054551;28;20055;-73
2023/01/21 06:02:52;;;;;;;94.50;44.83;;;;;;;-4.46;100.00;102755.16;5054553;28;20029;-72
2023/01/21 06:05:17;;;;;;;95.32;44.85;;;;;;;-4.44;100.00;102756.22;5054737;28;20033;-72
2023/01/21 06:07:42;;;;;;;91.40;43.30;;;;;;;-4.50;100.00;102760.81;5054464;28;20043;-73
2023/01/21 06:10:08;;;;;;;83.72;42.53;;;;;;;-4.54;100.00;102769.03;5054683;28;20029;-72
2023/01/21 06:12:34;;;;;;;86.70;43.08;;;;;;;-4.53;100.00;102775.09;5054402;28;20029;-72
2023/01/21 06:14:59;;;;;;;94.88;44.80;;;;;;;-4.53;100.00;102785.41;5054343;28;20395;-72
2023/01/21 06:17:25;;;;;;;84.97;42.90;;;;;;;-4.59;100.00;102781.50;5054278;28;20116;-73
2023/01/21 06:19:50;;;;;;;89.25;42.90;;;;;;;-4.53;100.00;102780.25;5036353;28;20163;-72
2023/01/21 06:22:16;;;;;;;87.75;43.45;;;;;;;-4.54;100.00;102781.94;5054154;28;20028;-72
2023/01/21 06:24:42;;;;;;;88.53;43.88;;;;;;;-4.49;100.00;102785.84;5054273;28;20028;-73
2023/01/21 06:27:07;;;;;;;87.07;43.97;;;;;;;-4.47;100.00;102781.75;5054193;28;20108;-72
2023/01/21 06:29:32;;;;;;;93.30;43.55;;;;;;;-4.49;100.00;102787.53;5054077;28;20035;-88
2023/01/21 06:31:58;;;;;;;91.70;44.55;;;;;;;-4.55;100.00;102782.69;5036138;28;20037;-87
2023/01/21 06:34:24;;;;;;;92.05;44.75;;;;;;;-4.53;100.00;102791.47;5054078;28;20075;-87
2023/01/21 06:36:49;;;;;;;94.60;44.90;;;;;;;-4.57;100.00;102800.63;5053895;28;20106;-79
2023/01/21 06:39:14;;;;;;;90.45;43.55;;;;;;;-4.51;100.00;102804.53;5054074;28;20071;-77
2023/01/21 06:41:40;;;;;;;88.93;42.95;;;;;;;-4.57;100.00;102805.78;5053868;28;20116;-89
2023/01/21 06:44:05;;;;;;;88.63;42.95;;;;;;;-4.61;100.00;102811.41;5053650;28;20060;-74
2023/01/21 06:46:31;;;;;;;87.95;43.13;;;;;;;-4.58;100.00;102818.53;5053851;28;20032;-88
2023/01/21 06:48:56;;;;;;;85.47;42.33;;;;;;;-4.54;100.00;102815.50;5053698;28;20029;-87
2023/01/21 06:51:22;;;;;;;85.68;42.92;;;;;;;-4.60;100.00;102820.03;5053865;28;20029;-82
2023/01/21 06:53:47;;;;;;;86.25;42.60;;;;;;;-4.68;100.00;102827.06;5053563;28;20056;-87
2023/01/21 06:56:12;;;;;;;87.40;43.13;;;;;;;-4.59;100.00;102827.03;5053580;28;20033;-79
2023/01/21 06:58:38;;;;;;;84.53;42.25;;;;;;;-4.69;100.00;102830.38;5053916;28;20033;-88
2023/01/21 07:01:03;;;;;;;90.30;43.60;;;;;;;-4.62;100.00;102831.91;5053425;28;20033;-88
2023/01/21 07:03:29;;;;;;;92.53;43.63;;;;;;;-4.64;100.00;102838.59;5053402;28;20108;-89
2023/01/21 07:05:54;;;;;;;86.20;42.60;;;;;;;-4.63;100.00;102843.91;5053488;28;20033;-83
2023/01/21 07:08:19;;;;;;;87.60;43.63;;;;;;;-4.64;100.00;102855.00;5053267;28;20063;-89
2023/01/21 07:10:45;;;;;;;93.15;46.10;;;;;;;-4.66;100.00;102851.34;5052167;28;20033;-89
2023/01/21 07:13:10;;;;;;;88.55;44.42;;;;;;;-4.65;100.00;102850.56;5053493;28;20025;-74
2023/01/21 07:15:36;;;;;;;89.93;43.88;;;;;;;-4.57;100.00;102846.19;5053005;28;20036;-73
2023/01/21 07:18:02;;;;;;;95.88;45.50;;;;;;;-4.59;100.00;102852.84;5053068;28;20076;-73
2023/01/21 07:20:28;;;;;;;95.07;46.03;;;;;;;-4.58;100.00;102855.59;5053221;28;20561;-72
2023/01/21 07:22:53;;;;;;;93.07;44.45;;;;;;;-4.53;100.00;102862.88;5052997;28;20039;-72
2023/01/21 07:25:18;;;;;;;95.13;44.53;;;;;;;-4.62;100.00;102862.88;5053155;28;20037;-72
2023/01/21 07:27:44;;;;;;;94.70;45.67;;;;;;;-4.56;100.00;102872.16;5052990;28;20043;-72
2023/01/21 07:30:15;;;;;;;93.85;44.65;;;;;;;-4.57;100.00;102875.47;5053187;28;20040;-72
2023/01/21 07:32:41;;;;;;;92.50;44.55;;;;;;;-4.60;100.00;102877.78;5049397;28;20025;-79
2023/01/21 07:35:06;;;;;;;89.78;44.10;;;;;;;-4.60;100.00;102879.41;5053132;28;20043;-90
2023/01/21 07:37:32;;;;;;;91.93;45.25;;;;;;;-4.62;100.00;102881.84;5052931;28;20036;-93
2023/01/21 07:39:57;;;;;;;89.40;44.38;;;;;;;-4.64;100.00;102885.97;5053163;28;20162;-88
2023/01/21 07:42:22;;;;;;;99.97;52.72;;;;;;;-4.65;100.00;102898.72;5052928;28;20032;-92
2023/01/21 07:44:48;;;;;;;114.22;64.32;;;;;;;-4.58;100.00;102903.72;5052968;28;20035;-92
2023/01/21 07:47:13;;;;;;;108.35;60.80;;;;;;;-4.56;100.00;102905.72;5052966;28;20396;-79
2023/01/21 07:49:39;;;;;;;102.53;53.03;;;;;;;-4.49;100.00;102906.31;5052885;28;20108;-84
2023/01/21 07:52:05;;;;;;;111.45;60.00;;;;;;;-4.56;100.00;102907.38;5052593;28;20091;-92
2023/01/21 07:54:30;;;;;;;109.50;58.55;;;;;;;-4.46;100.00;102906.59;5052625;28;20473;-73
2023/01/21 07:56:56;;;;;;;105.90;52.85;;;;;;;-4.52;100.00;102906.00;5052415;28;20065;-72
2023/01/21 07:59:22;;;;;;;100.45;50.22;;;;;;;-4.47;100.00;102915.09;5052505;28;20025;-73
2023/01/21 08:01:47;;;;;;;96.15;48.67;;;;;;;-4.40;100.00;102917.53;5052696;28;20032;-74
2023/01/21 08:04:12;;;;;;;101.90;51.53;;;;;;;-4.27;100.00;102928.28;5052407;28;20033;-72
2023/01/21 08:06:40;;;;;;;103.75;50.25;;;;;;;-4.07;100.00;102934.50;5052330;28;20096;-71
2023/01/21 08:09:05;;;;;;;109.93;51.90;;;;;;;-3.93;100.00;102939.34;5052552;28;20481;-74
2023/01/21 08:11:31;;;;;;;107.32;50.67;;;;;;;-3.71;100.00;102951.75;5052324;28;20086;-73
2023/01/21 08:13:56;;;;;;;106.20;49.63;;;;;;;-3.59;100.00;102957.16;5052320;28;20037;-73
2023/01/21 08:16:21;;;;;;;112.45;51.63;;;;;;;-3.52;100.00;102964.75;5052468;28;20112;-74
2023/01/21 08:18:47;;;;;;;113.15;53.00;;;;;;;-3.44;100.00;102963.78;5051964;28;20190;-74
2023/01/21 08:21:12;;;;;;;113.40;49.90;;;;;;;-3.33;100.00;102957.94;5053488;28;20384;-72
2023/01/21 08:23:37;;;;;;;109.25;48.17;;;;;;;-3.30;100.00;102967.69;5056405;28;20021;-74
2023/01/21 08:26:04;;;;;;;116.32;51.40;;;;;;;-3.20;100.00;102975.53;5056320;28;20535;-73
2023/01/21 08:28:30;;;;;;;111.63;49.42;;;;;;;-3.14;100.00;102976.91;5056517;28;20029;-75
2023/01/21 08:31:05;;;;;;;110.45;49.47;;;;;;;-3.07;100.00;102981.84;5056165;28;20033;-73
2023/01/21 08:33:31;;;;;;;113.93;49.28;;;;;;;-3.04;100.00;102977.00;5056156;28;20031;-72
2023/01/21 08:36:00;;;;;;;110.05;50.40;;;;;;;-3.02;100.00;102986.69;5056229;28;20104;-72
2023/01/21 08:38:26;;;;;;;107.13;49.33;;;;;;;-2.98;100.00;102996.56;5056349;28;20036;-72
2023/01/21 08:40:51;;;;;;;112.22;51.20;;;;;;;-2.94;100.00;102992.63;5056114;28;20396;-72
2023/01/21 08:43:16;;;;;;;107.07;48.40;;;;;;;-2.89;100.00;102995.63;5055887;28;20037;-72
2023/01/21 08:45:42;;;;;;;110.60;48.97;;;;;;;-2.86;100.00;102996.81;5055800;28;20037;-73
2023/01/21 08:48:07;;;;;;;109.97;48.67;;;;;;;-2.77;100.00;103001.94;5051878;28;20110;-73
2023/01/21 08:50:33;;;;;;;114.82;49.42;;;;;;;-2.72;100.00;103000.69;5056072;28;20483;-73
2023/01/21 08:52:58;;;;;;;112.82;50.88;;;;;;;-2.67;100.00;103009.78;5055832;28;20108;-73
2023/01/21 08:55:25;;;;;;;111.38;51.30;;;;;;;-2.63;100.00;103013.59;5055874;28;20108;-74
2023/01/21 08:57:52;;;;;;;111.43;49.78;;;;;;;-2.61;100.00;103008.53;5055955;28;20029;-72
2023/01/21 09:00:19;;;;;;;113.07;49.55;;;;;;;-2.60;100.00;103013.84;5055782;28;20083;-73
2023/01/21 09:02:44;;;;;;;110.63;49.70;;;;;;;-2.58;100.00;103014.91;5055756;28;20039;-72
2023/01/21 09:05:10;;;;;;;112.47;49.08;;;;;;;-2.51;100.00;103013.81;5055895;28;20033;-73
2023/01/21 09:07:35;;;;;;;118.38;56.00;;;;;;;-2.52;100.00;103023.25;5056125;28;20029;-72
2023/01/21 09:10:03;;;;;;;122.00;59.53;;;;;;;-2.57;100.00;103021.91;5055598;28;20133;-73
2023/01/21 09:12:28;;;;;;;121.65;63.75;;;;;;;-2.50;100.00;103032.06;5055712;28;20025;-74
2023/01/21 09:14:54;;;;;;;121.47;55.65;;;;;;;-2.41;100.00;103032.00;5055439;28;20487;-73
2023/01/21 09:17:19;;;;;;;103.80;47.75;;;;;;;-2.44;100.00;103028.25;5055620;28;20029;-89
2023/01/21 09:19:44;;;;;;;105.38;46.55;;;;;;;-2.40;100.00;103032.91;5055437;28;20053;-84
2023/01/21 09:22:10;;;;;;;102.55;46.20;;;;;;;-2.42;100.00;103025.00;5055907;28;20048;-92
2023/01/21 09:24:47;;;;;;;107.28;49.85;;;;;;;-2.44;100.00;103030.81;5055507;28;20024;-73
2023/01/21 09:27:13;;;;;;;105.28;47.53;;;;;;;-2.39;100.00;103026.97;5056717;28;20510;-73
2023/01/21 09:29:38;;;;;;;103.40;46.53;;;;;;;-2.40;100.00;103027.72;5054340;28;20057;-71
2023/01/21 09:32:04;;;;;;;98.30;43.38;;;;;;;-2.43;100.00;103032.63;5058581;28;20451;-71
2023/01/21 09:34:30;;;;;;;98.47;44.72;;;;;;;-2.40;100.00;103035.50;5053779;28;20464;-72
2023/01/21 09:36:55;;;;;;;100.65;44.15;;;;;;;-2.37;100.00;103039.28;5054179;28;20032;-72
2023/01/21 09:39:20;;;;;;;101.40;43.58;;;;;;;-2.31;100.00;103050.22;5055682;28;20025;-72
2023/01/21 09:41:54;;;;;;;98.82;44.58;;;;;;;-2.30;100.00;103052.03;5058189;28;20148;-71
2023/01/21 09:44:25;;;;;;;99.97;43.20;;;;;;;-2.24;100.00;103056.88;5035588;28;20021;-71
2023/01/21 09:47:01;;;;;;;102.28;44.78;;;;;;;-2.22;100.00;103063.09;5055461;28;20060;-71
2023/01/21 09:49:32;;;;;;;107.90;45.53;;;;;;;-2.19;100.00;103071.16;5051839;28;20439;-72
2023/01/21 09:52:31;;;;;;;104.70;43.72;;;;;;;-2.16;100.00;103073.13;5054210;28;20021;-72
2023/01/21 09:54:57;;;;;;;102.15;43.60;;;;;;;-2.14;100.00;103075.09;5051263;28;20040;-72
2023/01/21 09:57:37;;;;;;;103.90;43.72;;;;;;;-2.08;100.00;103085.13;5057604;28;20139;-73
2023/01/21 10:00:23;;;;;;;114.43;45.15;;;;;;;-2.01;100.00;103079.72;5054072;28;20028;-72
2023/01/21 10:03:01;;;;;;;103.15;43.38;;;;;;;-2.07;100.00;103086.91;5051522;28;20102;-73
2023/01/21 10:05:42;;;;;;;97.50;43.85;;;;;;;-2.05;100.00;103095.75;5052577;28;20036;-73
2023/01/21 10:08:10;;;;;;;102.63;45.28;;;;;;;-2.01;100.00;103102.13;5055183;28;20013;-73
2023/01/21 10:10:55;;;;;;;99.82;43.50;;;;;;;-2.03;100.00;103103.69;5057415;28;20033;-72
2023/01/21 10:13:25;;;;;;;98.88;43.45;;;;;;;-2.01;100.00;103107.31;5053223;28;20029;-73
2023/01/21 10:16:17;;;;;;;97.30;42.67;;;;;;;-2.06;100.00;103112.06;5053224;28;20021;-71
2023/01/21 10:18:46;;;;;;;94.30;41.72;;;;;;;-2.09;100.00;103114.38;5057880;28;20053;-74
2023/01/21 10:21:25;;;;;;;101.13;47.42;;;;;;;-2.09;100.00;103113.50;5053432;28;20384;-73
2023/01/21 10:23:56;;;;;;;106.88;46.63;;;;;;;-2.09;100.00;103108.31;5052941;28;20037;-73
2023/01/21 10:26:22;;;;;;;95.00;43.13;;;;;;;-2.04;100.00;103117.41;5054510;28;20056;-92
2023/01/21 10:28:50;;;;;;;118.22;55.97;;;;;;;-2.03;100.00;103111.47;5053115;28;20025;-80
2023/01/21 10:31:29;;;;;;;117.05;59.08;;;;;;;-1.96;100.00;103113.84;5023967;28;20055;-76
2023/01/21 10:33:55;;;;;;;107.63;43.92;;;;;;;-1.98;100.00;103107.59;5056770;28;20025;-93
2023/01/21 10:36:23;;;;;;;97.65;42.13;;;;;;;-1.93;100.00;103106.34;5053414;28;20039;-73
2023/01/21 10:39:00;;;;;;;104.38;45.42;;;;;;;-1.87;100.00;103108.59;5058233;28;20035;-73
2023/01/21 10:41:59;;;;;;;98.30;43.10;;;;;;;-1.80;100.00;103106.69;5051822;28;20033;-73
2023/01/21 10:44:36;;;;;;;103.28;45.65;;;;;;;-1.77;100.00;103100.88;5052518;28;20033;-73
2023/01/21 10:47:17;;;;;;;103.20;44.50;;;;;;;-1.67;100.00;103102.63;5049909;28;20025;-73
2023/01/21 10:50:03;;;;;;;108.63;45.08;;;;;;;-1.54;100.00;103097.75;5051408;28;20025;-73
2023/01/21 10:52:39;;;;;;;109.10;45.58;;;;;;;-1.34;100.00;103091.75;5053853;28;20032;-73
2023/01/21 10:55:50;;;;;;;101.13;45.60;;;;;;;-1.23;100.00;103093.56;5050194;28;20033;-73
2023/01/21 10:58:21;;;;;;;102.50;43.40;;;;;;;-1.12;100.00;103091.00;5031195;28;20048;-73
2023/01/21 11:00:48;;;;;;;137.88;49.97;;;;;;;-0.31;100.00;103073.72;5053538;28;20029;-73
2023/01/21 11:03:22;;;;;;;125.63;49.42;;;;;;;0.17;100.00;103082.88;5053630;28;20464;-73
2023/01/21 11:05:48;;;;;;;117.18;46.75;;;;;;;0.58;100.00;103087.03;5053294;28;20029;-73
2023/01/21 11:08:20;;;;;;;105.60;46.58;;;;;;;0.64;100.00;103088.44;5053324;28;20021;-73
2023/01/21 11:10:49;;;;;;;96.97;44.10;;;;;;;0.94;100.00;103091.66;5053484;28;20029;-73